McCook Municipal, NE

4:39 PM CDT en Julio 31, 2014 (GMT -0500)
McCook Municipal (KMCK) Alt 2579 ft | 40.20 °N, 100.59 °W | Change Station

Current weather conditions updated 46 minutes ago

Partly Cloudy
Parcialmente nublado
88 ° F
Sensación térmica 88 ° F
N
7
Viento Variable Viento desde OSO

Mañana se prevé una temperatura muy similar a la de hoy.

Hoy
Alta -- | Baja -- ° F
--% Posibilidad de precipitaciones
Ayer
Alta -- | Baja -- ° F
Precip. -- pul
6:39 AM 8:57 PM
Creciente, 21% visible
Presión 30.03 pul
Visibilidad 10.0 Millas
Nubes Baja 8500 ft
Punto de rocío 50 ° F
Humedad 27%
Precipitaciones 0.00 pul
Espesor de la nieve No disponible.
UV 8 de una escala de 12
Polen 7.50 de una escala de 12
Calidad del aire No disponible.
Flu Activity No disponible.
METAR KMCK 312053Z AUTO 25006KT 10SM FEW085 31/10 A3009 RMK AO2 SLP167 T03110100 58016

More Conditions Fewer Conditions

Presión 30.03 pul
Visibilidad 10.0 Millas
Nubes Baja 8500 ft
Punto de rocío 50 ° F
Humedad 27%
Precipitaciones 0.00 pul
Espesor de la nieve No disponible.
UV 8 de una escala de 12
Polen 7.50 de una escala de 12
Calidad del aire No disponible.
Flu Activity No disponible.
METAR KMCK 312053Z AUTO 25006KT 10SM FEW085 31/10 A3009 RMK AO2 SLP167 T03110100 58016

More Conditions Fewer Conditions

10-Day Weather Forecast

Almanac

Astronomía

Jul. 31, 2014 Salida Puesta
Hora real 6:39 AM CDT 8:57 PM CDT
Crepúsculo civil 6:08 AM CDT 9:27 PM CDT
Crepúsculo náutico 5:31 AM CDT 10:05 PM CDT
Crepúsculo astronómico 4:49 AM CDT 10:46 PM CDT
Luna 11:08 AM CDT 11:10 PM CDT
Horas de luz 15h 19m
Horas de luz
14h 18m
Tomorrow will be 1m 59s shorter.
Creciente, 21% of the Moon is Illuminated
Hoy
Creciente
Ago 3
Cuarto creciente
Ago 10
Luna llena
Ago 17
Cuarto menguante
Ago 25
Nueva

Extremos de hoy

Máximos del estado Bajos del estado

Community

WunderPhotos

Upload Photos

1,739,454 ¡fotos cargadas!

Nearby

Grosos de nieve

Estación Profundido Altura
No tenemos constancia de nieve nueva.

Actividad de terremotos

Ciudad Distance Mag. Tiempo y dato
No hay informes recientes de la actividad sísmica.
Magnitud mínima muestra es 2,5.

Temperaturas de aguas costeras

Lugar Temperatura
Sin partes meteorológicos de las estaciones

Estaciones meteorológicas cercanas

Ubicación de la estación Temp. Índice de calor Punto de rocío Humedad Viento Precip. Alt Actualizado Tipo
McCook, NE 89.8 ° F 89 ° F 57 ° F 35% Oeste  a  2.0 mph 0.00 pul / hr 2609 ft 4:35 PM CDT Normal
HADS RED WILLOW CREEK NEAR INDIANOLA NE, Indianola, NE 94 ° F 90 ° F - - Norte  a  - 0.00 pul / hr 2398 ft 3:30 PM CDT MADIS
Kastens Farms, Herndon, KS 88.0 ° F 85 ° F 51 ° F 28% ONO  a  0.0 mph 0.00 pul / hr 2967 ft 4:32 PM CDT Normal
5 North, 1.5 West, Trenton, NE 88.0 ° F 85 ° F 46 ° F 23% ONO  a  10.0 mph 0.00 pul / hr 2969 ft 4:38 PM CDT Normal

Show More Stations Show Fewer Stations